sensor_id;sensor_type;location;lat;lon;timestamp;P1;durP1;ratioP1;P2;durP2;ratioP2
22764;SDS011;11549;50.852;3.816;2024-02-16T00:00:19;9.57;;;4.82;;
22764;SDS011;11549;50.852;3.816;2024-02-16T00:02:49;8.20;;;4.38;;
22764;SDS011;11549;50.852;3.816;2024-02-16T00:05:18;7.85;;;4.35;;
22764;SDS011;11549;50.852;3.816;2024-02-16T00:07:46;7.22;;;4.90;;
22764;SDS011;11549;50.852;3.816;2024-02-16T00:10:15;6.75;;;4.70;;
22764;SDS011;11549;50.852;3.816;2024-02-16T00:12:45;7.78;;;4.65;;
22764;SDS011;11549;50.852;3.816;2024-02-16T00:15:13;7.00;;;4.65;;
22764;SDS011;11549;50.852;3.816;2024-02-16T00:17:42;6.85;;;4.20;;
22764;SDS011;11549;50.852;3.816;2024-02-16T00:20:13;6.57;;;4.68;;
22764;SDS011;11549;50.852;3.816;2024-02-16T00:22:41;7.13;;;4.70;;
22764;SDS011;11549;50.852;3.816;2024-02-16T00:25:10;8.63;;;4.68;;
22764;SDS011;11549;50.852;3.816;2024-02-16T00:27:46;6.88;;;4.63;;
22764;SDS011;11549;50.852;3.816;2024-02-16T00:30:15;7.22;;;4.53;;
22764;SDS011;11549;50.852;3.816;2024-02-16T00:32:45;8.43;;;4.65;;
22764;SDS011;11549;50.852;3.816;2024-02-16T00:35:14;8.18;;;4.85;;
22764;SDS011;11549;50.852;3.816;2024-02-16T00:37:44;9.35;;;4.50;;
22764;SDS011;11549;50.852;3.816;2024-02-16T00:40:13;5.43;;;3.97;;
22764;SDS011;11549;50.852;3.816;2024-02-16T00:42:42;8.35;;;4.70;;
22764;SDS011;11549;50.852;3.816;2024-02-16T00:45:10;10.00;;;4.40;;
22764;SDS011;11549;50.852;3.816;2024-02-16T00:47:39;8.07;;;4.60;;
22764;SDS011;11549;50.852;3.816;2024-02-16T00:50:09;8.27;;;4.40;;
22764;SDS011;11549;50.852;3.816;2024-02-16T00:52:43;7.05;;;4.40;;
22764;SDS011;11549;50.852;3.816;2024-02-16T00:55:13;7.82;;;4.50;;
22764;SDS011;11549;50.852;3.816;2024-02-16T00:57:46;7.53;;;4.50;;
22764;SDS011;11549;50.852;3.816;2024-02-16T01:00:14;7.15;;;4.28;;
22764;SDS011;11549;50.852;3.816;2024-02-16T01:02:44;6.95;;;4.20;;
22764;SDS011;11549;50.852;3.816;2024-02-16T01:05:12;7.35;;;4.35;;
22764;SDS011;11549;50.852;3.816;2024-02-16T01:07:45;7.63;;;4.00;;
22764;SDS011;11549;50.852;3.816;2024-02-16T01:10:14;7.22;;;4.53;;
22764;SDS011;11549;50.852;3.816;2024-02-16T01:12:42;7.60;;;4.20;;
22764;SDS011;11549;50.852;3.816;2024-02-16T01:15:11;9.02;;;4.25;;
22764;SDS011;11549;50.852;3.816;2024-02-16T01:17:39;9.52;;;4.70;;
22764;SDS011;11549;50.852;3.816;2024-02-16T01:20:08;7.68;;;4.38;;
22764;SDS011;11549;50.852;3.816;2024-02-16T01:22:39;7.93;;;4.70;;
22764;SDS011;11549;50.852;3.816;2024-02-16T01:25:09;6.88;;;4.72;;
22764;SDS011;11549;50.852;3.816;2024-02-16T01:27:38;8.25;;;4.50;;
22764;SDS011;11549;50.852;3.816;2024-02-16T01:30:08;6.78;;;4.40;;
22764;SDS011;11549;50.852;3.816;2024-02-16T01:32:37;7.75;;;4.97;;
22764;SDS011;11549;50.852;3.816;2024-02-16T01:35:05;8.45;;;4.90;;
22764;SDS011;11549;50.852;3.816;2024-02-16T01:37:35;7.30;;;4.53;;
22764;SDS011;11549;50.852;3.816;2024-02-16T01:40:03;7.78;;;4.43;;
22764;SDS011;11549;50.852;3.816;2024-02-16T01:42:34;7.10;;;4.55;;
22764;SDS011;11549;50.852;3.816;2024-02-16T01:45:02;8.50;;;5.13;;
22764;SDS011;11549;50.852;3.816;2024-02-16T01:47:31;8.45;;;5.13;;
22764;SDS011;11549;50.852;3.816;2024-02-16T01:50:00;7.93;;;4.72;;
22764;SDS011;11549;50.852;3.816;2024-02-16T01:52:30;6.47;;;4.60;;
22764;SDS011;11549;50.852;3.816;2024-02-16T01:55:00;7.65;;;4.68;;
22764;SDS011;11549;50.852;3.816;2024-02-16T01:57:29;7.70;;;4.85;;
22764;SDS011;11549;50.852;3.816;2024-02-16T02:00:00;8.13;;;4.47;;
22764;SDS011;11549;50.852;3.816;2024-02-16T02:02:29;8.25;;;4.68;;
22764;SDS011;11549;50.852;3.816;2024-02-16T02:04:57;6.80;;;4.47;;
22764;SDS011;11549;50.852;3.816;2024-02-16T02:07:27;7.25;;;4.78;;
22764;SDS011;11549;50.852;3.816;2024-02-16T02:09:56;7.57;;;4.85;;
22764;SDS011;11549;50.852;3.816;2024-02-16T02:12:24;8.68;;;4.80;;
22764;SDS011;11549;50.852;3.816;2024-02-16T02:14:53;6.75;;;4.70;;
22764;SDS011;11549;50.852;3.816;2024-02-16T02:17:23;7.22;;;4.78;;
22764;SDS011;11549;50.852;3.816;2024-02-16T02:19:52;7.75;;;4.82;;
22764;SDS011;11549;50.852;3.816;2024-02-16T02:22:22;7.30;;;4.75;;
22764;SDS011;11549;50.852;3.816;2024-02-16T02:24:53;8.18;;;4.85;;
22764;SDS011;11549;50.852;3.816;2024-02-16T02:27:22;7.22;;;4.88;;
22764;SDS011;11549;50.852;3.816;2024-02-16T02:29:51;7.55;;;4.68;;
22764;SDS011;11549;50.852;3.816;2024-02-16T02:32:19;8.88;;;5.00;;
22764;SDS011;11549;50.852;3.816;2024-02-16T02:34:48;7.30;;;4.95;;
22764;SDS011;11549;50.852;3.816;2024-02-16T02:37:16;9.65;;;5.00;;
22764;SDS011;11549;50.852;3.816;2024-02-16T02:39:46;8.52;;;5.22;;
22764;SDS011;11549;50.852;3.816;2024-02-16T02:42:15;6.35;;;5.05;;
22764;SDS011;11549;50.852;3.816;2024-02-16T02:44:43;10.60;;;5.60;;
22764;SDS011;11549;50.852;3.816;2024-02-16T02:47:18;10.35;;;5.43;;
22764;SDS011;11549;50.852;3.816;2024-02-16T02:49:46;9.40;;;5.22;;
22764;SDS011;11549;50.852;3.816;2024-02-16T02:52:15;9.30;;;5.22;;
22764;SDS011;11549;50.852;3.816;2024-02-16T02:54:43;9.32;;;5.70;;
22764;SDS011;11549;50.852;3.816;2024-02-16T02:57:13;9.80;;;5.60;;
22764;SDS011;11549;50.852;3.816;2024-02-16T02:59:41;9.27;;;5.22;;
22764;SDS011;11549;50.852;3.816;2024-02-16T03:02:10;9.70;;;5.60;;
22764;SDS011;11549;50.852;3.816;2024-02-16T03:04:38;7.30;;;4.95;;
22764;SDS011;11549;50.852;3.816;2024-02-16T03:07:07;8.52;;;4.90;;
22764;SDS011;11549;50.852;3.816;2024-02-16T03:09:35;8.65;;;4.85;;
22764;SDS011;11549;50.852;3.816;2024-02-16T03:12:04;11.60;;;5.53;;
22764;SDS011;11549;50.852;3.816;2024-02-16T03:14:34;7.63;;;5.30;;
22764;SDS011;11549;50.852;3.816;2024-02-16T03:17:03;8.63;;;5.38;;
22764;SDS011;11549;50.852;3.816;2024-02-16T03:19:32;11.18;;;5.20;;
22764;SDS011;11549;50.852;3.816;2024-02-16T03:22:01;10.70;;;5.55;;
22764;SDS011;11549;50.852;3.816;2024-02-16T03:24:30;8.85;;;5.30;;
22764;SDS011;11549;50.852;3.816;2024-02-16T03:26:59;9.25;;;5.63;;
22764;SDS011;11549;50.852;3.816;2024-02-16T03:29:28;10.27;;;5.65;;
22764;SDS011;11549;50.852;3.816;2024-02-16T03:31:58;8.88;;;5.63;;
22764;SDS011;11549;50.852;3.816;2024-02-16T03:34:27;9.43;;;5.50;;
22764;SDS011;11549;50.852;3.816;2024-02-16T03:36:55;9.63;;;5.43;;
22764;SDS011;11549;50.852;3.816;2024-02-16T03:39:25;9.23;;;5.25;;
22764;SDS011;11549;50.852;3.816;2024-02-16T03:41:54;9.63;;;5.40;;
22764;SDS011;11549;50.852;3.816;2024-02-16T03:44:22;9.93;;;5.80;;
22764;SDS011;11549;50.852;3.816;2024-02-16T03:46:50;9.32;;;5.55;;
22764;SDS011;11549;50.852;3.816;2024-02-16T03:49:24;10.60;;;5.50;;
22764;SDS011;11549;50.852;3.816;2024-02-16T03:51:55;10.33;;;5.20;;
22764;SDS011;11549;50.852;3.816;2024-02-16T03:54:23;8.60;;;5.30;;
22764;SDS011;11549;50.852;3.816;2024-02-16T03:56:52;8.00;;;5.30;;
22764;SDS011;11549;50.852;3.816;2024-02-16T03:59:21;9.85;;;5.22;;
22764;SDS011;11549;50.852;3.816;2024-02-16T04:01:51;6.82;;;4.85;;
22764;SDS011;11549;50.852;3.816;2024-02-16T04:04:19;8.85;;;5.20;;
22764;SDS011;11549;50.852;3.816;2024-02-16T04:06:49;7.60;;;5.10;;
22764;SDS011;11549;50.852;3.816;2024-02-16T04:09:17;9.05;;;5.00;;
22764;SDS011;11549;50.852;3.816;2024-02-16T04:11:46;7.93;;;4.82;;
22764;SDS011;11549;50.852;3.816;2024-02-16T04:14:15;9.38;;;5.25;;
22764;SDS011;11549;50.852;3.816;2024-02-16T04:16:43;8.88;;;4.90;;
22764;SDS011;11549;50.852;3.816;2024-02-16T04:19:12;8.23;;;4.72;;
22764;SDS011;11549;50.852;3.816;2024-02-16T04:21:41;8.55;;;5.00;;
22764;SDS011;11549;50.852;3.816;2024-02-16T04:24:10;9.75;;;4.95;;
22764;SDS011;11549;50.852;3.816;2024-02-16T04:26:39;7.85;;;4.53;;
22764;SDS011;11549;50.852;3.816;2024-02-16T04:29:07;8.20;;;4.93;;
22764;SDS011;11549;50.852;3.816;2024-02-16T04:31:36;8.02;;;5.20;;
22764;SDS011;11549;50.852;3.816;2024-02-16T04:34:09;9.13;;;4.93;;
22764;SDS011;11549;50.852;3.816;2024-02-16T04:36:37;7.88;;;4.65;;
22764;SDS011;11549;50.852;3.816;2024-02-16T04:39:05;9.30;;;5.00;;
22764;SDS011;11549;50.852;3.816;2024-02-16T04:41:38;7.85;;;4.93;;
22764;SDS011;11549;50.852;3.816;2024-02-16T04:44:06;9.95;;;4.70;;
22764;SDS011;11549;50.852;3.816;2024-02-16T04:46:34;8.10;;;4.53;;
22764;SDS011;11549;50.852;3.816;2024-02-16T04:49:03;7.38;;;4.80;;
22764;SDS011;11549;50.852;3.816;2024-02-16T04:51:31;7.53;;;5.00;;
22764;SDS011;11549;50.852;3.816;2024-02-16T04:53:59;9.23;;;4.85;;
22764;SDS011;11549;50.852;3.816;2024-02-16T04:56:31;7.97;;;5.10;;
22764;SDS011;11549;50.852;3.816;2024-02-16T04:59:01;9.05;;;4.80;;
22764;SDS011;11549;50.852;3.816;2024-02-16T05:01:29;10.23;;;5.13;;
22764;SDS011;11549;50.852;3.816;2024-02-16T05:03:59;8.40;;;5.40;;
22764;SDS011;11549;50.852;3.816;2024-02-16T05:06:29;11.23;;;5.10;;
22764;SDS011;11549;50.852;3.816;2024-02-16T05:08:57;8.48;;;4.78;;
22764;SDS011;11549;50.852;3.816;2024-02-16T05:11:26;8.50;;;4.90;;
22764;SDS011;11549;50.852;3.816;2024-02-16T05:13:56;10.38;;;5.03;;
22764;SDS011;11549;50.852;3.816;2024-02-16T05:16:27;9.38;;;4.40;;
22764;SDS011;11549;50.852;3.816;2024-02-16T05:18:56;9.52;;;4.88;;
22764;SDS011;11549;50.852;3.816;2024-02-16T05:21:24;7.88;;;4.82;;
22764;SDS011;11549;50.852;3.816;2024-02-16T05:23:53;10.85;;;5.45;;
22764;SDS011;11549;50.852;3.816;2024-02-16T05:26:21;8.38;;;4.90;;
22764;SDS011;11549;50.852;3.816;2024-02-16T05:28:50;9.07;;;4.93;;
22764;SDS011;11549;50.852;3.816;2024-02-16T05:31:18;9.10;;;5.03;;
22764;SDS011;11549;50.852;3.816;2024-02-16T05:33:48;9.00;;;4.80;;
22764;SDS011;11549;50.852;3.816;2024-02-16T05:36:18;8.93;;;4.82;;
22764;SDS011;11549;50.852;3.816;2024-02-16T05:38:47;9.50;;;4.80;;
22764;SDS011;11549;50.852;3.816;2024-02-16T05:41:16;9.50;;;5.18;;
22764;SDS011;11549;50.852;3.816;2024-02-16T05:43:45;7.85;;;4.50;;
22764;SDS011;11549;50.852;3.816;2024-02-16T05:46:15;8.45;;;5.22;;
22764;SDS011;11549;50.852;3.816;2024-02-16T05:48:44;8.18;;;5.30;;
22764;SDS011;11549;50.852;3.816;2024-02-16T05:51:15;8.30;;;4.88;;
22764;SDS011;11549;50.852;3.816;2024-02-16T05:53:43;8.23;;;4.72;;
22764;SDS011;11549;50.852;3.816;2024-02-16T05:56:13;10.32;;;5.45;;
22764;SDS011;11549;50.852;3.816;2024-02-16T05:58:42;9.73;;;5.55;;
22764;SDS011;11549;50.852;3.816;2024-02-16T06:01:10;9.23;;;5.18;;
22764;SDS011;11549;50.852;3.816;2024-02-16T06:03:41;8.07;;;5.22;;
22764;SDS011;11549;50.852;3.816;2024-02-16T06:06:09;8.40;;;5.03;;
22764;SDS011;11549;50.852;3.816;2024-02-16T06:08:39;8.27;;;5.20;;
22764;SDS011;11549;50.852;3.816;2024-02-16T06:11:07;10.10;;;5.18;;
22764;SDS011;11549;50.852;3.816;2024-02-16T06:13:36;8.07;;;4.97;;
22764;SDS011;11549;50.852;3.816;2024-02-16T06:16:06;11.85;;;4.93;;
22764;SDS011;11549;50.852;3.816;2024-02-16T06:18:35;10.05;;;5.22;;
22764;SDS011;11549;50.852;3.816;2024-02-16T06:21:04;7.90;;;4.72;;
22764;SDS011;11549;50.852;3.816;2024-02-16T06:23:32;8.95;;;4.72;;
22764;SDS011;11549;50.852;3.816;2024-02-16T06:26:05;9.07;;;4.93;;
22764;SDS011;11549;50.852;3.816;2024-02-16T06:28:34;8.13;;;5.00;;
22764;SDS011;11549;50.852;3.816;2024-02-16T06:31:03;9.98;;;4.70;;
22764;SDS011;11549;50.852;3.816;2024-02-16T06:33:32;8.25;;;4.97;;
22764;SDS011;11549;50.852;3.816;2024-02-16T06:36:00;7.97;;;4.97;;
22764;SDS011;11549;50.852;3.816;2024-02-16T06:38:29;8.88;;;5.25;;
22764;SDS011;11549;50.852;3.816;2024-02-16T06:40:58;11.32;;;5.60;;
22764;SDS011;11549;50.852;3.816;2024-02-16T06:43:28;10.45;;;5.57;;
22764;SDS011;11549;50.852;3.816;2024-02-16T06:45:56;10.25;;;5.68;;
22764;SDS011;11549;50.852;3.816;2024-02-16T06:48:25;7.25;;;5.32;;
22764;SDS011;11549;50.852;3.816;2024-02-16T06:50:53;10.05;;;5.43;;
22764;SDS011;11549;50.852;3.816;2024-02-16T06:53:22;8.32;;;5.35;;
22764;SDS011;11549;50.852;3.816;2024-02-16T06:55:51;9.65;;;5.28;;
22764;SDS011;11549;50.852;3.816;2024-02-16T06:58:19;9.43;;;5.60;;
22764;SDS011;11549;50.852;3.816;2024-02-16T07:00:49;9.73;;;5.82;;
22764;SDS011;11549;50.852;3.816;2024-02-16T07:03:18;11.05;;;6.63;;
22764;SDS011;11549;50.852;3.816;2024-02-16T07:05:46;13.65;;;6.88;;
22764;SDS011;11549;50.852;3.816;2024-02-16T07:08:15;10.05;;;5.75;;
22764;SDS011;11549;50.852;3.816;2024-02-16T07:10:43;17.55;;;8.30;;
22764;SDS011;11549;50.852;3.816;2024-02-16T07:13:13;16.15;;;9.40;;
22764;SDS011;11549;50.852;3.816;2024-02-16T07:15:41;15.07;;;8.50;;
22764;SDS011;11549;50.852;3.816;2024-02-16T07:18:11;12.63;;;7.05;;
22764;SDS011;11549;50.852;3.816;2024-02-16T07:20:40;10.90;;;5.95;;
22764;SDS011;11549;50.852;3.816;2024-02-16T07:23:09;12.50;;;6.70;;
22764;SDS011;11549;50.852;3.816;2024-02-16T07:25:37;10.43;;;6.20;;
22764;SDS011;11549;50.852;3.816;2024-02-16T07:28:05;11.18;;;6.03;;
22764;SDS011;11549;50.852;3.816;2024-02-16T07:30:34;10.93;;;6.30;;
22764;SDS011;11549;50.852;3.816;2024-02-16T07:33:09;12.43;;;6.28;;
22764;SDS011;11549;50.852;3.816;2024-02-16T07:35:39;10.20;;;6.32;;
22764;SDS011;11549;50.852;3.816;2024-02-16T07:38:07;12.23;;;6.95;;
22764;SDS011;11549;50.852;3.816;2024-02-16T07:40:36;9.73;;;6.50;;
22764;SDS011;11549;50.852;3.816;2024-02-16T07:43:05;17.90;;;7.18;;
22764;SDS011;11549;50.852;3.816;2024-02-16T07:45:34;13.23;;;7.18;;
22764;SDS011;11549;50.852;3.816;2024-02-16T07:48:03;13.32;;;6.70;;
22764;SDS011;11549;50.852;3.816;2024-02-16T07:50:34;10.18;;;6.22;;
22764;SDS011;11549;50.852;3.816;2024-02-16T07:53:04;10.55;;;5.95;;
22764;SDS011;11549;50.852;3.816;2024-02-16T07:55:33;11.45;;;6.40;;
22764;SDS011;11549;50.852;3.816;2024-02-16T07:58:01;11.80;;;6.20;;
22764;SDS011;11549;50.852;3.816;2024-02-16T08:00:30;14.57;;;6.95;;
22764;SDS011;11549;50.852;3.816;2024-02-16T08:02:59;10.27;;;6.13;;
22764;SDS011;11549;50.852;3.816;2024-02-16T08:05:29;9.48;;;5.40;;
22764;SDS011;11549;50.852;3.816;2024-02-16T08:07:58;11.10;;;6.22;;
22764;SDS011;11549;50.852;3.816;2024-02-16T08:10:28;13.35;;;6.10;;
22764;SDS011;11549;50.852;3.816;2024-02-16T08:12:56;11.10;;;5.30;;
22764;SDS011;11549;50.852;3.816;2024-02-16T08:15:25;12.00;;;5.85;;
22764;SDS011;11549;50.852;3.816;2024-02-16T08:17:53;11.52;;;5.97;;
22764;SDS011;11549;50.852;3.816;2024-02-16T08:20:22;14.45;;;5.88;;
22764;SDS011;11549;50.852;3.816;2024-02-16T08:22:50;10.75;;;5.32;;
22764;SDS011;11549;50.852;3.816;2024-02-16T08:25:19;10.70;;;5.80;;
22764;SDS011;11549;50.852;3.816;2024-02-16T08:27:50;11.45;;;5.95;;
22764;SDS011;11549;50.852;3.816;2024-02-16T08:30:18;12.20;;;6.13;;
22764;SDS011;11549;50.852;3.816;2024-02-16T08:32:47;16.73;;;6.25;;
22764;SDS011;11549;50.852;3.816;2024-02-16T08:35:16;12.45;;;5.90;;
22764;SDS011;11549;50.852;3.816;2024-02-16T08:37:45;12.90;;;5.72;;
22764;SDS011;11549;50.852;3.816;2024-02-16T08:40:13;12.77;;;6.00;;
22764;SDS011;11549;50.852;3.816;2024-02-16T08:42:42;11.77;;;6.47;;
22764;SDS011;11549;50.852;3.816;2024-02-16T08:45:12;12.70;;;5.95;;
22764;SDS011;11549;50.852;3.816;2024-02-16T08:47:43;11.40;;;6.40;;
22764;SDS011;11549;50.852;3.816;2024-02-16T08:50:15;11.10;;;5.55;;
22764;SDS011;11549;50.852;3.816;2024-02-16T08:52:44;13.68;;;6.18;;
22764;SDS011;11549;50.852;3.816;2024-02-16T08:55:13;14.77;;;6.60;;
22764;SDS011;11549;50.852;3.816;2024-02-16T08:57:42;13.95;;;6.05;;
22764;SDS011;11549;50.852;3.816;2024-02-16T09:00:14;12.30;;;5.82;;
22764;SDS011;11549;50.852;3.816;2024-02-16T09:02:43;12.75;;;6.22;;
22764;SDS011;11549;50.852;3.816;2024-02-16T09:05:12;13.85;;;6.53;;
22764;SDS011;11549;50.852;3.816;2024-02-16T09:07:41;15.30;;;6.63;;
22764;SDS011;11549;50.852;3.816;2024-02-16T09:10:09;13.07;;;6.85;;
22764;SDS011;11549;50.852;3.816;2024-02-16T09:12:38;12.07;;;6.80;;
22764;SDS011;11549;50.852;3.816;2024-02-16T09:15:07;15.48;;;7.70;;
22764;SDS011;11549;50.852;3.816;2024-02-16T09:17:37;14.95;;;7.18;;
22764;SDS011;11549;50.852;3.816;2024-02-16T09:20:06;17.95;;;8.13;;
22764;SDS011;11549;50.852;3.816;2024-02-16T09:22:35;13.63;;;8.13;;
22764;SDS011;11549;50.852;3.816;2024-02-16T09:25:04;14.40;;;8.15;;
22764;SDS011;11549;50.852;3.816;2024-02-16T09:27:34;15.75;;;7.63;;
22764;SDS011;11549;50.852;3.816;2024-02-16T09:30:07;13.63;;;7.88;;
22764;SDS011;11549;50.852;3.816;2024-02-16T09:32:40;16.65;;;8.05;;
22764;SDS011;11549;50.852;3.816;2024-02-16T09:35:08;21.55;;;8.80;;
22764;SDS011;11549;50.852;3.816;2024-02-16T09:37:38;15.13;;;8.52;;
22764;SDS011;11549;50.852;3.816;2024-02-16T09:40:07;15.93;;;8.35;;
22764;SDS011;11549;50.852;3.816;2024-02-16T09:42:40;17.52;;;8.55;;
22764;SDS011;11549;50.852;3.816;2024-02-16T09:45:09;15.95;;;8.27;;
22764;SDS011;11549;50.852;3.816;2024-02-16T09:47:40;15.70;;;8.90;;
22764;SDS011;11549;50.852;3.816;2024-02-16T09:50:27;15.93;;;8.85;;
22764;SDS011;11549;50.852;3.816;2024-02-16T09:52:56;17.90;;;9.70;;
22764;SDS011;11549;50.852;3.816;2024-02-16T09:55:25;15.73;;;9.07;;
22764;SDS011;11549;50.852;3.816;2024-02-16T09:58:00;18.85;;;9.57;;
22764;SDS011;11549;50.852;3.816;2024-02-16T10:00:31;17.95;;;9.75;;
22764;SDS011;11549;50.852;3.816;2024-02-16T10:03:02;16.98;;;9.65;;
22764;SDS011;11549;50.852;3.816;2024-02-16T10:05:31;15.35;;;9.80;;
22764;SDS011;11549;50.852;3.816;2024-02-16T10:08:00;17.52;;;9.32;;
22764;SDS011;11549;50.852;3.816;2024-02-16T10:10:39;19.20;;;10.18;;
22764;SDS011;11549;50.852;3.816;2024-02-16T10:13:08;15.93;;;10.07;;
22764;SDS011;11549;50.852;3.816;2024-02-16T10:15:38;18.80;;;10.50;;
22764;SDS011;11549;50.852;3.816;2024-02-16T10:18:07;21.77;;;10.85;;
22764;SDS011;11549;50.852;3.816;2024-02-16T10:20:38;24.52;;;11.23;;
22764;SDS011;11549;50.852;3.816;2024-02-16T10:23:08;18.05;;;10.95;;
22764;SDS011;11549;50.852;3.816;2024-02-16T10:25:37;18.90;;;10.57;;
22764;SDS011;11549;50.852;3.816;2024-02-16T10:28:07;16.77;;;10.98;;
22764;SDS011;11549;50.852;3.816;2024-02-16T10:30:39;19.52;;;11.15;;
22764;SDS011;11549;50.852;3.816;2024-02-16T10:33:11;22.35;;;11.85;;
22764;SDS011;11549;50.852;3.816;2024-02-16T10:35:40;21.02;;;12.23;;
22764;SDS011;11549;50.852;3.816;2024-02-16T10:38:09;16.55;;;11.63;;
22764;SDS011;11549;50.852;3.816;2024-02-16T10:40:39;22.15;;;12.35;;
22764;SDS011;11549;50.852;3.816;2024-02-16T10:43:08;21.65;;;13.95;;
22764;SDS011;11549;50.852;3.816;2024-02-16T10:45:39;19.20;;;12.90;;
22764;SDS011;11549;50.852;3.816;2024-02-16T10:48:07;19.95;;;13.02;;
22764;SDS011;11549;50.852;3.816;2024-02-16T10:50:37;17.90;;;13.00;;
22764;SDS011;11549;50.852;3.816;2024-02-16T10:53:09;20.90;;;12.95;;
22764;SDS011;11549;50.852;3.816;2024-02-16T10:55:41;22.13;;;13.38;;
22764;SDS011;11549;50.852;3.816;2024-02-16T10:58:11;19.48;;;13.15;;
22764;SDS011;11549;50.852;3.816;2024-02-16T11:00:51;21.60;;;14.48;;
22764;SDS011;11549;50.852;3.816;2024-02-16T11:03:22;20.13;;;13.35;;
22764;SDS011;11549;50.852;3.816;2024-02-16T11:05:53;19.90;;;13.40;;
22764;SDS011;11549;50.852;3.816;2024-02-16T11:08:25;19.67;;;14.32;;
22764;SDS011;11549;50.852;3.816;2024-02-16T11:10:56;20.67;;;13.68;;
22764;SDS011;11549;50.852;3.816;2024-02-16T11:13:25;18.98;;;14.00;;
22764;SDS011;11549;50.852;3.816;2024-02-16T11:15:58;20.63;;;13.40;;
22764;SDS011;11549;50.852;3.816;2024-02-16T11:18:28;16.70;;;13.77;;
22764;SDS011;11549;50.852;3.816;2024-02-16T11:21:01;19.30;;;14.75;;
22764;SDS011;11549;50.852;3.816;2024-02-16T11:23:31;20.17;;;14.43;;
22764;SDS011;11549;50.852;3.816;2024-02-16T11:25:59;19.80;;;15.15;;
22764;SDS011;11549;50.852;3.816;2024-02-16T11:28:31;20.30;;;14.68;;
22764;SDS011;11549;50.852;3.816;2024-02-16T11:31:00;19.48;;;15.63;;
22764;SDS011;11549;50.852;3.816;2024-02-16T11:33:29;19.75;;;14.60;;
22764;SDS011;11549;50.852;3.816;2024-02-16T11:35:59;19.80;;;15.75;;
22764;SDS011;11549;50.852;3.816;2024-02-16T11:38:31;21.33;;;15.93;;
22764;SDS011;11549;50.852;3.816;2024-02-16T11:41:01;21.13;;;16.60;;
22764;SDS011;11549;50.852;3.816;2024-02-16T11:43:31;46.90;;;35.20;;
22764;SDS011;11549;50.852;3.816;2024-02-16T11:46:10;24.23;;;18.60;;
22764;SDS011;11549;50.852;3.816;2024-02-16T11:48:40;24.83;;;18.90;;
22764;SDS011;11549;50.852;3.816;2024-02-16T11:51:11;25.33;;;19.67;;
22764;SDS011;11549;50.852;3.816;2024-02-16T11:53:44;24.05;;;18.48;;
22764;SDS011;11549;50.852;3.816;2024-02-16T11:56:22;23.52;;;17.83;;
22764;SDS011;11549;50.852;3.816;2024-02-16T11:58:51;22.95;;;17.30;;
22764;SDS011;11549;50.852;3.816;2024-02-16T12:01:20;21.08;;;16.50;;
22764;SDS011;11549;50.852;3.816;2024-02-16T12:03:49;23.80;;;16.42;;
22764;SDS011;11549;50.852;3.816;2024-02-16T12:06:22;23.33;;;16.95;;
22764;SDS011;11549;50.852;3.816;2024-02-16T12:08:51;22.05;;;16.55;;
22764;SDS011;11549;50.852;3.816;2024-02-16T12:11:20;21.95;;;15.85;;
22764;SDS011;11549;50.852;3.816;2024-02-16T12:13:49;16.30;;;13.25;;
22764;SDS011;11549;50.852;3.816;2024-02-16T12:16:18;19.15;;;14.25;;
22764;SDS011;11549;50.852;3.816;2024-02-16T12:18:47;18.30;;;13.90;;
22764;SDS011;11549;50.852;3.816;2024-02-16T12:21:17;17.65;;;14.30;;
22764;SDS011;11549;50.852;3.816;2024-02-16T12:23:49;20.08;;;14.43;;
22764;SDS011;11549;50.852;3.816;2024-02-16T12:26:17;18.63;;;13.32;;
22764;SDS011;11549;50.852;3.816;2024-02-16T12:28:46;15.68;;;12.77;;
22764;SDS011;11549;50.852;3.816;2024-02-16T12:31:19;15.38;;;11.98;;
22764;SDS011;11549;50.852;3.816;2024-02-16T12:33:47;15.73;;;11.48;;
22764;SDS011;11549;50.852;3.816;2024-02-16T12:36:16;13.32;;;11.20;;
22764;SDS011;11549;50.852;3.816;2024-02-16T12:38:45;13.95;;;11.32;;
22764;SDS011;11549;50.852;3.816;2024-02-16T12:41:15;12.95;;;9.52;;
22764;SDS011;11549;50.852;3.816;2024-02-16T12:43:44;13.32;;;10.00;;
22764;SDS011;11549;50.852;3.816;2024-02-16T12:46:12;11.32;;;9.75;;
22764;SDS011;11549;50.852;3.816;2024-02-16T12:48:40;11.75;;;9.15;;
22764;SDS011;11549;50.852;3.816;2024-02-16T12:51:11;10.00;;;8.05;;
22764;SDS011;11549;50.852;3.816;2024-02-16T12:53:40;7.78;;;6.72;;
22764;SDS011;11549;50.852;3.816;2024-02-16T12:56:09;7.80;;;6.78;;
22764;SDS011;11549;50.852;3.816;2024-02-16T12:58:39;9.35;;;6.47;;
22764;SDS011;11549;50.852;3.816;2024-02-16T13:01:08;10.32;;;7.47;;
22764;SDS011;11549;50.852;3.816;2024-02-16T13:03:51;11.85;;;6.88;;
22764;SDS011;11549;50.852;3.816;2024-02-16T13:06:19;8.73;;;7.20;;
22764;SDS011;11549;50.852;3.816;2024-02-16T13:08:53;8.90;;;6.55;;
22764;SDS011;11549;50.852;3.816;2024-02-16T13:11:22;8.32;;;6.38;;
22764;SDS011;11549;50.852;3.816;2024-02-16T13:13:52;8.15;;;6.35;;
22764;SDS011;11549;50.852;3.816;2024-02-16T13:16:20;12.20;;;6.65;;
22764;SDS011;11549;50.852;3.816;2024-02-16T13:18:48;9.43;;;6.95;;
22764;SDS011;11549;50.852;3.816;2024-02-16T13:21:17;9.13;;;6.55;;
22764;SDS011;11549;50.852;3.816;2024-02-16T13:23:45;7.97;;;6.40;;
22764;SDS011;11549;50.852;3.816;2024-02-16T13:26:14;8.88;;;6.63;;
22764;SDS011;11549;50.852;3.816;2024-02-16T13:28:43;9.10;;;6.85;;
22764;SDS011;11549;50.852;3.816;2024-02-16T13:31:13;11.35;;;7.15;;
22764;SDS011;11549;50.852;3.816;2024-02-16T13:33:41;8.10;;;6.75;;
22764;SDS011;11549;50.852;3.816;2024-02-16T13:36:09;8.55;;;6.03;;
22764;SDS011;11549;50.852;3.816;2024-02-16T13:38:38;8.65;;;5.78;;
22764;SDS011;11549;50.852;3.816;2024-02-16T13:41:07;7.70;;;6.10;;
22764;SDS011;11549;50.852;3.816;2024-02-16T13:43:35;8.32;;;6.63;;
22764;SDS011;11549;50.852;3.816;2024-02-16T13:46:04;8.43;;;6.30;;
22764;SDS011;11549;50.852;3.816;2024-02-16T13:48:33;6.93;;;6.20;;
22764;SDS011;11549;50.852;3.816;2024-02-16T13:51:04;7.50;;;5.68;;
22764;SDS011;11549;50.852;3.816;2024-02-16T13:53:34;6.78;;;5.30;;
22764;SDS011;11549;50.852;3.816;2024-02-16T13:56:03;7.10;;;5.22;;
22764;SDS011;11549;50.852;3.816;2024-02-16T13:58:32;9.35;;;6.88;;
22764;SDS011;11549;50.852;3.816;2024-02-16T14:01:02;8.30;;;6.40;;
22764;SDS011;11549;50.852;3.816;2024-02-16T14:03:31;8.15;;;5.82;;
22764;SDS011;11549;50.852;3.816;2024-02-16T14:06:03;6.68;;;5.95;;
22764;SDS011;11549;50.852;3.816;2024-02-16T14:08:34;7.13;;;5.78;;
22764;SDS011;11549;50.852;3.816;2024-02-16T14:11:02;7.78;;;5.90;;
22764;SDS011;11549;50.852;3.816;2024-02-16T14:13:31;7.60;;;5.70;;
22764;SDS011;11549;50.852;3.816;2024-02-16T14:15:59;9.57;;;6.63;;
22764;SDS011;11549;50.852;3.816;2024-02-16T14:18:28;9.25;;;6.47;;
22764;SDS011;11549;50.852;3.816;2024-02-16T14:21:03;9.00;;;7.30;;
22764;SDS011;11549;50.852;3.816;2024-02-16T14:23:31;10.10;;;7.20;;
22764;SDS011;11549;50.852;3.816;2024-02-16T14:26:00;8.90;;;7.30;;
22764;SDS011;11549;50.852;3.816;2024-02-16T14:28:28;8.80;;;7.40;;
22764;SDS011;11549;50.852;3.816;2024-02-16T14:30:57;10.20;;;7.90;;
22764;SDS011;11549;50.852;3.816;2024-02-16T14:33:25;9.85;;;7.25;;
22764;SDS011;11549;50.852;3.816;2024-02-16T14:36:00;9.52;;;7.28;;
22764;SDS011;11549;50.852;3.816;2024-02-16T14:38:30;9.15;;;7.35;;
22764;SDS011;11549;50.852;3.816;2024-02-16T14:40:59;8.73;;;6.43;;
22764;SDS011;11549;50.852;3.816;2024-02-16T14:43:31;8.18;;;5.88;;
22764;SDS011;11549;50.852;3.816;2024-02-16T14:45:59;8.45;;;5.55;;
22764;SDS011;11549;50.852;3.816;2024-02-16T14:48:31;6.88;;;5.20;;
22764;SDS011;11549;50.852;3.816;2024-02-16T14:50:59;6.45;;;4.60;;